Terminal Aerodrome Forecast
Issued by NWS

Home | Current Version | Previous Version | Text Only | Print | Product List | Glossary On
Versions: 1 2 3 4 5 6 7 8 9 10 11 12
502
FTUS45 KVEF 052320
TAFHND
TAF
KHND 052320Z 0600/0624 03009KT P6SM FEW250
     FM060300 17005KT P6SM FEW250
     FM061800 03007KT P6SM FEW250=

USA.gov is the U.S. government's official web portal to all federal, state and local government web resources and services.